createdAt,value
2022-10-03T00:02:13.622Z,100892.22
2022-10-03T00:04:45.839Z,100885.97
2022-10-03T00:07:16.603Z,100888.19
2022-10-03T00:09:59.014Z,100886.28
2022-10-03T00:12:42.315Z,100893.31
2022-10-03T00:15:09.433Z,100903.22
2022-10-03T00:17:48.582Z,100898.78
2022-10-03T00:20:33.925Z,100900.69
2022-10-03T00:23:07.713Z,100899.78
2022-10-03T00:25:43.579Z,100900.75
2022-10-03T00:28:49.514Z,100903.44
2022-10-03T00:31:25.759Z,100910.19
2022-10-03T00:33:53.143Z,100912.69
2022-10-03T00:36:38.800Z,100904.47
2022-10-03T00:39:12.136Z,100907.22
2022-10-03T00:41:45.185Z,100901.28
2022-10-03T00:44:12.303Z,100906.47
2022-10-03T00:46:51.957Z,100903.69
2022-10-03T00:49:37.588Z,100907.69
2022-10-03T00:52:18.430Z,100919.91
2022-10-03T00:55:15.195Z,100924.84
2022-10-03T00:57:42.283Z,100923.66
2022-10-03T01:00:29.461Z,100924.31
2022-10-03T01:03:15.090Z,100931.94
2022-10-03T01:05:57.182Z,100927.66
2022-10-03T01:08:27.151Z,100950.09
2022-10-03T01:11:00.206Z,100939.75
2022-10-03T01:13:32.628Z,100934.66
2022-10-03T01:16:14.970Z,100943.78
2022-10-03T01:18:48.290Z,100952.44
2022-10-03T01:21:15.402Z,100944.00
2022-10-03T01:23:42.590Z,100946.53
2022-10-03T01:26:19.044Z,100950.06
2022-10-03T01:29:15.988Z,100940.44
2022-10-03T01:31:55.529Z,100942.63
2022-10-03T01:34:34.626Z,100951.06
2022-10-03T01:37:05.666Z,100949.53
2022-10-03T01:39:51.908Z,100944.44
2022-10-03T01:42:28.791Z,100947.56
2022-10-03T01:45:11.226Z,100950.97
2022-10-03T01:47:38.381Z,100943.84
2022-10-03T01:50:26.758Z,100950.75
2022-10-03T01:52:58.767Z,100946.41
2022-10-03T01:55:37.813Z,100957.53
2022-10-03T01:58:04.935Z,100963.84
2022-10-03T02:00:36.429Z,100964.72
2022-10-03T02:03:06.433Z,100960.28
2022-10-03T02:05:35.177Z,100974.53
2022-10-03T02:08:17.879Z,100972.88
2022-10-03T02:10:55.121Z,100971.97
2022-10-03T02:13:24.329Z,100971.03
2022-10-03T02:15:57.637Z,100983.53
2022-10-03T02:18:36.708Z,100985.66
2022-10-03T02:21:14.841Z,100980.50
2022-10-03T02:23:45.176Z,100978.69
2022-10-03T02:26:12.290Z,100976.03
2022-10-03T02:28:50.797Z,100981.38
2022-10-03T02:31:27.091Z,100972.91
2022-10-03T02:34:06.885Z,100973.59
2022-10-03T02:36:36.809Z,100980.28
2022-10-03T02:39:16.049Z,100966.91
2022-10-03T02:41:55.129Z,100977.31
2022-10-03T02:44:22.318Z,100980.06
2022-10-03T02:47:09.043Z,100984.69
2022-10-03T02:49:54.493Z,100980.00
2022-10-03T02:52:27.479Z,100982.59
2022-10-03T02:55:06.415Z,100981.66
2022-10-03T02:57:52.119Z,100978.81
2022-10-03T03:00:21.050Z,100985.66
2022-10-03T03:03:06.818Z,100983.03
2022-10-03T03:05:52.523Z,100987.47
2022-10-03T03:08:25.974Z,100987.31
2022-10-03T03:10:53.225Z,100987.53
2022-10-03T03:13:47.515Z,100989.13
2022-10-03T03:16:14.638Z,100990.88
2022-10-03T03:18:45.353Z,101003.22
2022-10-03T03:21:20.660Z,101010.28
2022-10-03T03:23:58.909Z,101000.53
2022-10-03T03:26:32.144Z,100997.41
2022-10-03T03:29:04.635Z,101000.03
2022-10-03T03:31:37.568Z,101000.97
2022-10-03T03:34:22.248Z,101000.63
2022-10-03T03:37:03.725Z,100997.84
2022-10-03T03:39:42.444Z,100997.56
2022-10-03T03:42:23.901Z,101006.88
2022-10-03T03:45:04.512Z,100998.88
2022-10-03T03:47:31.645Z,100990.06
2022-10-03T03:50:25.423Z,100998.81
2022-10-03T03:53:01.567Z,100995.81
2022-10-03T03:55:48.973Z,101008.09
2022-10-03T03:58:19.272Z,101011.78
2022-10-03T04:01:05.063Z,101020.06
2022-10-03T04:03:34.989Z,101026.38
2022-10-03T04:06:08.165Z,101028.34
2022-10-03T04:08:41.553Z,101022.22
2022-10-03T04:11:12.390Z,101028.59
2022-10-03T04:13:48.828Z,101025.38
2022-10-03T04:16:49.955Z,101028.22
2022-10-03T04:19:26.162Z,101042.44
2022-10-03T04:21:54.985Z,101032.88
2022-10-03T04:24:28.174Z,101035.09
2022-10-03T04:26:59.603Z,101044.00
2022-10-03T04:29:47.199Z,101036.94
2022-10-03T04:32:35.450Z,101033.34
2022-10-03T04:35:21.137Z,101030.69
2022-10-03T04:37:52.526Z,101020.25
2022-10-03T04:40:22.682Z,101024.97
2022-10-03T04:42:58.381Z,101020.69
2022-10-03T04:45:28.384Z,101022.75
2022-10-03T04:48:07.763Z,101017.38
2022-10-03T04:50:45.103Z,101020.13
2022-10-03T04:53:19.494Z,101017.91
2022-10-03T04:55:53.391Z,101010.91
2022-10-03T04:58:26.744Z,101009.84
2022-10-03T05:01:13.233Z,101011.66
2022-10-03T05:03:43.475Z,101007.91
2022-10-03T05:06:23.686Z,101020.31
2022-10-03T05:08:50.741Z,101015.00
2022-10-03T05:11:29.976Z,101009.63
2022-10-03T05:13:57.184Z,101013.19
2022-10-03T05:16:50.589Z,101017.75
2022-10-03T05:19:20.724Z,101014.13
2022-10-03T05:21:56.062Z,101018.63
2022-10-03T05:24:49.313Z,101022.44
2022-10-03T05:27:23.071Z,101022.97
2022-10-03T05:30:07.660Z,101026.59
2022-10-03T05:32:53.732Z,101037.41
2022-10-03T05:35:27.721Z,101038.94
2022-10-03T05:38:24.378Z,101045.44
2022-10-03T05:41:11.722Z,101051.44
2022-10-03T05:43:44.961Z,101047.69
2022-10-03T05:46:12.430Z,101054.63
2022-10-03T05:48:46.177Z,101051.88
2022-10-03T05:51:22.580Z,101048.16
2022-10-03T05:53:55.589Z,101039.16
2022-10-03T05:56:40.877Z,101043.88
2022-10-03T05:59:20.345Z,101046.09
2022-10-03T06:01:53.647Z,101050.50
2022-10-03T06:04:36.789Z,101060.34
2022-10-03T06:07:17.668Z,101059.66
2022-10-03T06:10:03.850Z,101069.50
2022-10-03T06:12:49.729Z,101065.84
2022-10-03T06:15:28.826Z,101066.72
2022-10-03T06:17:55.905Z,101063.97
2022-10-03T06:20:38.142Z,101068.25
2022-10-03T06:23:06.255Z,101068.94
2022-10-03T06:25:52.157Z,101065.63
2022-10-03T06:28:38.396Z,101078.47
2022-10-03T06:31:32.408Z,101079.34
2022-10-03T06:33:59.692Z,101078.88
2022-10-03T06:36:45.423Z,101078.81
2022-10-03T06:39:29.058Z,101077.06
2022-10-03T06:42:15.059Z,101075.53
2022-10-03T06:45:11.763Z,101074.69
2022-10-03T06:47:57.205Z,101070.72
2022-10-03T06:50:24.351Z,101076.38
2022-10-03T06:52:54.240Z,101079.81
2022-10-03T06:55:39.034Z,101096.72
2022-10-03T06:58:21.190Z,101085.84
2022-10-03T07:01:07.531Z,101089.59
2022-10-03T07:04:00.816Z,101088.44
2022-10-03T07:06:40.316Z,101083.56
2022-10-03T07:09:30.529Z,101087.81
2022-10-03T07:12:17.932Z,101086.53
2022-10-03T07:14:55.667Z,101091.81
2022-10-03T07:17:26.024Z,101100.13
2022-10-03T07:20:12.543Z,101097.44
2022-10-03T07:22:53.117Z,101103.69
2022-10-03T07:25:23.528Z,101111.41
2022-10-03T07:28:09.097Z,101114.03
2022-10-03T07:30:49.219Z,101123.31
2022-10-03T07:33:38.744Z,101117.47
2022-10-03T07:36:27.933Z,101119.72
2022-10-03T07:39:01.412Z,101126.09
2022-10-03T07:41:41.575Z,101126.69
2022-10-03T07:44:18.104Z,101127.09
2022-10-03T07:47:04.259Z,101130.88
2022-10-03T07:49:49.128Z,101129.25
2022-10-03T07:52:37.159Z,101127.03
2022-10-03T07:55:23.120Z,101128.59
2022-10-03T07:57:50.825Z,101131.78
2022-10-03T08:00:24.709Z,101137.66
2022-10-03T08:03:04.188Z,101130.72
2022-10-03T08:05:43.914Z,101120.19
2022-10-03T08:08:32.025Z,101121.16
2022-10-03T08:11:08.177Z,101120.53
2022-10-03T08:14:00.693Z,101119.25
2022-10-03T08:16:50.577Z,101115.63
2022-10-03T08:19:25.365Z,101124.09
2022-10-03T08:22:06.402Z,101126.19
2022-10-03T08:24:52.365Z,101120.13
2022-10-03T08:27:38.136Z,101127.81
2022-10-03T08:30:08.130Z,101129.28
2022-10-03T08:32:48.720Z,101121.78
2022-10-03T08:35:22.124Z,101123.72
2022-10-03T08:38:04.716Z,101135.66
2022-10-03T08:40:34.920Z,101137.88
2022-10-03T08:43:10.743Z,101139.84
2022-10-03T08:45:39.730Z,101133.19
2022-10-03T08:48:26.062Z,101138.38
2022-10-03T08:51:00.215Z,101131.13
2022-10-03T08:53:48.911Z,101127.75
2022-10-03T08:56:27.899Z,101122.56
2022-10-03T08:58:55.014Z,101121.75
2022-10-03T09:01:34.595Z,101128.28
2022-10-03T09:04:20.577Z,101130.22
2022-10-03T09:07:17.112Z,101122.91
2022-10-03T09:09:54.644Z,101118.75
2022-10-03T09:12:31.757Z,101110.88
2022-10-03T09:15:14.206Z,101123.59
2022-10-03T09:18:00.155Z,101119.50
2022-10-03T09:20:34.746Z,101129.81
2022-10-03T09:23:14.086Z,101138.72
2022-10-03T09:25:47.441Z,101130.44
2022-10-03T09:28:33.736Z,101131.13
2022-10-03T09:31:05.063Z,101134.06
2022-10-03T09:33:35.479Z,101127.13
2022-10-03T09:36:07.038Z,101116.16
2022-10-03T09:38:36.971Z,101125.16
2022-10-03T09:41:23.140Z,101123.91
2022-10-03T09:44:09.085Z,101120.22
2022-10-03T09:47:08.288Z,101131.16
2022-10-03T09:49:38.589Z,101128.75
2022-10-03T09:52:26.439Z,101128.66
2022-10-03T09:55:18.189Z,101118.22
2022-10-03T09:57:51.409Z,101114.72
2022-10-03T10:00:27.479Z,101114.19
2022-10-03T10:03:07.591Z,101108.09
2022-10-03T10:05:34.818Z,101105.28
2022-10-03T10:08:20.617Z,101105.53
2022-10-03T10:11:03.530Z,101105.22
2022-10-03T10:14:05.899Z,101098.06
2022-10-03T10:16:48.205Z,101097.31
2022-10-03T10:19:15.847Z,101093.41
2022-10-03T10:21:46.150Z,101095.59
2022-10-03T10:24:19.785Z,101099.84
2022-10-03T10:26:54.075Z,101091.03
2022-10-03T10:29:27.139Z,101094.25
2022-10-03T10:31:54.823Z,101090.28
2022-10-03T10:34:22.234Z,101086.25
2022-10-03T10:36:49.437Z,101083.16
2022-10-03T10:39:36.890Z,101092.28
2022-10-03T10:42:04.019Z,101097.53
2022-10-03T10:44:43.357Z,101089.94
2022-10-03T10:47:11.250Z,101091.25
2022-10-03T10:49:38.636Z,101093.75
2022-10-03T10:52:15.134Z,101086.81
2022-10-03T10:54:45.315Z,101076.72
2022-10-03T10:57:25.737Z,101085.50
2022-10-03T11:00:11.619Z,101077.47
2022-10-03T11:02:42.914Z,101067.31
2022-10-03T11:05:29.779Z,101066.72
2022-10-03T11:08:16.872Z,101069.31
2022-10-03T11:11:02.856Z,101066.00
2022-10-03T11:13:35.456Z,101060.34
2022-10-03T11:16:21.486Z,101065.25
2022-10-03T11:19:03.783Z,101058.22
2022-10-03T11:21:40.011Z,101059.19
2022-10-03T11:24:15.986Z,101059.75
2022-10-03T11:27:02.008Z,101056.81
2022-10-03T11:29:47.508Z,101057.91
2022-10-03T11:32:20.738Z,101053.56
2022-10-03T11:34:54.570Z,101055.84
2022-10-03T11:37:29.224Z,101055.56
2022-10-03T11:39:56.320Z,101051.00
2022-10-03T11:42:41.121Z,101048.31
2022-10-03T11:45:26.053Z,101046.34
2022-10-03T11:47:57.738Z,101046.44
2022-10-03T11:50:24.912Z,101040.16
2022-10-03T11:53:12.297Z,101039.41
2022-10-03T11:55:44.173Z,101041.56
2022-10-03T11:58:20.899Z,101040.16
2022-10-03T12:00:55.152Z,101033.50
2022-10-03T12:03:22.382Z,101035.06
2022-10-03T12:06:19.502Z,101034.84
2022-10-03T12:09:09.664Z,101030.81
2022-10-03T12:11:43.245Z,101021.91
2022-10-03T12:14:11.669Z,101031.59
2022-10-03T12:16:42.210Z,101024.94
2022-10-03T12:19:20.837Z,101020.81
2022-10-03T12:21:57.757Z,101022.47
2022-10-03T12:24:26.476Z,101017.91
2022-10-03T12:26:53.663Z,101025.91
2022-10-03T12:29:22.923Z,101021.56
2022-10-03T12:32:02.346Z,101019.16
2022-10-03T12:34:49.441Z,101018.31
2022-10-03T12:37:35.443Z,101019.41
2022-10-03T12:40:13.359Z,101012.25
2022-10-03T12:42:41.459Z,101006.94
2022-10-03T12:45:32.100Z,101001.63
2022-10-03T12:48:05.309Z,101003.00
2022-10-03T12:50:43.204Z,101002.81
2022-10-03T12:53:17.498Z,101000.72
2022-10-03T12:55:56.795Z,101000.72
2022-10-03T12:58:48.273Z,101000.84
2022-10-03T13:01:34.087Z,100992.13
2022-10-03T13:04:20.050Z,100997.69
2022-10-03T13:07:03.423Z,101002.38
2022-10-03T13:09:36.373Z,101003.00
2022-10-03T13:12:27.486Z,100990.28
2022-10-03T13:15:15.014Z,100993.44
2022-10-03T13:17:50.286Z,100992.34
2022-10-03T13:20:17.519Z,100994.41
2022-10-03T13:23:10.830Z,100997.25
2022-10-03T13:25:47.727Z,100993.66
2022-10-03T13:28:15.892Z,100987.56
2022-10-03T13:31:01.771Z,100989.03
2022-10-03T13:33:43.121Z,100988.91
2022-10-03T13:36:16.545Z,100988.59
2022-10-03T13:39:02.751Z,100988.91
2022-10-03T13:41:43.236Z,100981.63
2022-10-03T13:44:10.933Z,100988.16
2022-10-03T13:46:54.118Z,100987.28
2022-10-03T13:49:44.627Z,100995.50
2022-10-03T13:52:15.420Z,100992.91
2022-10-03T13:55:00.901Z,100987.50
2022-10-03T13:57:30.207Z,100984.66
2022-10-03T14:00:08.362Z,100981.94
2022-10-03T14:02:42.023Z,100983.69
2022-10-03T14:05:23.358Z,100990.00
2022-10-03T14:07:50.481Z,100986.75
2022-10-03T14:10:26.784Z,100979.56
2022-10-03T14:13:16.258Z,100977.06
2022-10-03T14:15:46.595Z,100979.91
2022-10-03T14:18:19.574Z,100987.38
2022-10-03T14:20:56.451Z,100987.19
2022-10-03T14:23:23.641Z,100995.44
2022-10-03T14:26:00.458Z,100992.06
2022-10-03T14:28:27.728Z,100986.75
2022-10-03T14:31:08.013Z,100992.41
2022-10-03T14:33:38.802Z,100990.13
2022-10-03T14:36:24.835Z,100986.88
2022-10-03T14:39:09.952Z,100988.81
2022-10-03T14:41:46.798Z,100995.09
2022-10-03T14:44:34.227Z,100990.97
2022-10-03T14:47:12.094Z,100989.88
2022-10-03T14:49:59.553Z,100986.50
2022-10-03T14:52:45.884Z,100979.25
2022-10-03T14:55:13.089Z,100992.06
2022-10-03T14:58:09.418Z,100985.22
2022-10-03T15:00:55.646Z,100977.81
2022-10-03T15:03:24.954Z,100980.66
2022-10-03T15:06:03.367Z,100986.19
2022-10-03T15:08:39.434Z,100979.16
2022-10-03T15:11:14.669Z,100977.06
2022-10-03T15:13:51.064Z,100973.50
2022-10-03T15:16:21.493Z,100968.81
2022-10-03T15:19:20.812Z,100969.78
2022-10-03T15:21:52.235Z,100975.44
2022-10-03T15:24:38.309Z,100972.28
2022-10-03T15:27:09.245Z,100966.31
2022-10-03T15:29:38.612Z,100971.84
2022-10-03T15:32:17.557Z,100973.81
2022-10-03T15:34:49.860Z,100968.50
2022-10-03T15:37:18.828Z,100974.16
2022-10-03T15:39:48.156Z,100975.19
2022-10-03T15:42:20.350Z,100973.47
2022-10-03T15:45:00.298Z,100970.75
2022-10-03T15:47:34.907Z,100970.00
2022-10-03T15:50:08.540Z,100974.66
2022-10-03T15:52:41.770Z,100975.75
2022-10-03T15:55:35.407Z,100982.13
2022-10-03T15:58:16.595Z,100984.19
2022-10-03T16:01:01.708Z,100982.69
2022-10-03T16:03:33.472Z,100987.53
2022-10-03T16:06:13.908Z,100984.06
2022-10-03T16:08:53.405Z,100973.53
2022-10-03T16:11:22.583Z,100979.16
2022-10-03T16:14:10.144Z,100976.56
2022-10-03T16:16:47.302Z,100977.66
2022-10-03T16:19:40.755Z,100980.47
2022-10-03T16:22:19.246Z,100978.81
2022-10-03T16:25:04.934Z,100988.78
2022-10-03T16:27:34.650Z,100987.16
2022-10-03T16:30:16.008Z,100988.22
2022-10-03T16:32:48.154Z,100996.34
2022-10-03T16:35:28.087Z,100998.31
2022-10-03T16:37:55.752Z,101001.19
2022-10-03T16:40:24.388Z,100995.13
2022-10-03T16:42:55.420Z,100998.81
2022-10-03T16:45:35.101Z,100991.84
2022-10-03T16:48:22.298Z,100999.22
2022-10-03T16:50:52.037Z,100996.81
2022-10-03T16:53:20.857Z,100992.56
2022-10-03T16:55:50.731Z,101001.88
2022-10-03T16:58:20.713Z,101004.75
2022-10-03T17:01:21.999Z,101009.41
2022-10-03T17:03:46.877Z,101008.66
2022-10-03T17:06:34.235Z,101010.72
2022-10-03T17:09:04.149Z,101007.31
2022-10-03T17:11:34.957Z,101004.94
2022-10-03T17:14:04.238Z,101012.34
2022-10-03T17:16:49.945Z,101015.16
2022-10-03T17:19:26.767Z,101015.16
2022-10-03T17:21:56.042Z,101017.13
2022-10-03T17:24:27.613Z,101018.31
2022-10-03T17:26:54.975Z,101016.47
2022-10-03T17:29:23.977Z,101028.16
2022-10-03T17:31:51.214Z,101026.59
2022-10-03T17:34:22.975Z,101020.53
2022-10-03T17:37:08.684Z,101025.16
2022-10-03T17:39:41.733Z,101028.06
2022-10-03T17:42:15.897Z,101029.22
2022-10-03T17:45:16.766Z,101028.38
2022-10-03T17:47:50.324Z,101040.38
2022-10-03T17:50:23.732Z,101044.81
2022-10-03T17:52:53.191Z,101043.84
2022-10-03T17:55:29.675Z,101049.59
2022-10-03T17:58:00.107Z,101051.44
2022-10-03T18:00:33.684Z,101042.44
2022-10-03T18:03:07.922Z,101056.44
2022-10-03T18:05:43.268Z,101050.06
2022-10-03T18:08:14.455Z,101050.47
2022-10-03T18:10:46.439Z,101056.84
2022-10-03T18:13:21.854Z,101058.00
2022-10-03T18:15:58.066Z,101060.81
2022-10-03T18:18:44.753Z,101061.66
2022-10-03T18:21:12.012Z,101062.75
2022-10-03T18:23:55.115Z,101071.31
2022-10-03T18:26:22.756Z,101069.69
2022-10-03T18:29:01.160Z,101080.41
2022-10-03T18:31:34.151Z,101079.63
2022-10-03T18:34:03.239Z,101082.91
2022-10-03T18:36:32.611Z,101078.66
2022-10-03T18:39:14.743Z,101084.19
2022-10-03T18:41:46.701Z,101084.44
2022-10-03T18:44:17.294Z,101087.59
2022-10-03T18:46:50.921Z,101097.38
2022-10-03T18:49:39.628Z,101096.69
2022-10-03T18:52:29.868Z,101097.47
2022-10-03T18:55:02.983Z,101093.53
2022-10-03T18:57:30.292Z,101097.66
2022-10-03T19:00:15.994Z,101100.13
2022-10-03T19:02:46.593Z,101102.22
2022-10-03T19:05:13.835Z,101104.91
2022-10-03T19:07:48.796Z,101095.06
2022-10-03T19:10:37.267Z,101098.44
2022-10-03T19:13:04.359Z,101097.41
2022-10-03T19:15:38.801Z,101100.78
2022-10-03T19:18:06.001Z,101112.56
2022-10-03T19:20:41.272Z,101106.81
2022-10-03T19:23:11.718Z,101112.31
2022-10-03T19:25:40.171Z,101116.66
2022-10-03T19:28:17.079Z,101113.53
2022-10-03T19:30:46.032Z,101116.22
2022-10-03T19:33:24.357Z,101122.69
2022-10-03T19:35:55.191Z,101115.63
2022-10-03T19:38:27.869Z,101121.72
2022-10-03T19:41:06.764Z,101123.13
2022-10-03T19:43:44.503Z,101123.31
2022-10-03T19:46:22.353Z,101126.88
2022-10-03T19:48:52.623Z,101129.75
2022-10-03T19:51:25.436Z,101136.13
2022-10-03T19:53:54.091Z,101135.31
2022-10-03T19:56:23.194Z,101142.09
2022-10-03T19:59:09.000Z,101143.75
2022-10-03T20:01:46.482Z,101148.78
2022-10-03T20:04:16.776Z,101153.59
2022-10-03T20:07:09.974Z,101162.28
2022-10-03T20:09:39.304Z,101172.13
2022-10-03T20:12:09.408Z,101174.59
2022-10-03T20:14:38.022Z,101169.88
2022-10-03T20:17:12.340Z,101180.88
2022-10-03T20:19:39.392Z,101184.63
2022-10-03T20:22:06.619Z,101179.88
2022-10-03T20:24:35.930Z,101184.56
2022-10-03T20:27:21.495Z,101181.69
2022-10-03T20:30:06.704Z,101190.66
2022-10-03T20:32:35.942Z,101196.53
2022-10-03T20:35:03.577Z,101192.88
2022-10-03T20:37:36.606Z,101199.56
2022-10-03T20:40:17.083Z,101200.09
2022-10-03T20:42:47.603Z,101203.06
2022-10-03T20:45:17.341Z,101210.88
2022-10-03T20:47:47.333Z,101211.34
2022-10-03T20:50:23.636Z,101213.72
2022-10-03T20:52:57.066Z,101221.47
2022-10-03T20:55:26.565Z,101214.84
2022-10-03T20:58:04.362Z,101209.34
2022-10-03T21:00:31.815Z,101204.22
2022-10-03T21:03:13.952Z,101213.97
2022-10-03T21:05:46.402Z,101209.63
2022-10-03T21:08:19.375Z,101206.22
2022-10-03T21:10:54.682Z,101211.66
2022-10-03T21:13:26.865Z,101212.53
2022-10-03T21:15:57.456Z,101204.72
2022-10-03T21:18:26.590Z,101208.59
2022-10-03T21:21:03.357Z,101210.38
2022-10-03T21:23:32.357Z,101216.09
2022-10-03T21:26:01.496Z,101219.66
2022-10-03T21:28:33.262Z,101224.28
2022-10-03T21:31:03.222Z,101217.13
2022-10-03T21:33:31.305Z,101219.88
2022-10-03T21:36:07.437Z,101225.16
2022-10-03T21:38:37.133Z,101224.38
2022-10-03T21:41:18.117Z,101225.44
2022-10-03T21:43:51.026Z,101225.75
2022-10-03T21:46:40.894Z,101228.72
2022-10-03T21:49:14.041Z,101233.25
2022-10-03T21:51:43.983Z,101226.25
2022-10-03T21:54:19.965Z,101229.91
2022-10-03T21:57:03.824Z,101231.41
2022-10-03T21:59:50.419Z,101238.28
2022-10-03T22:02:40.602Z,101234.56
2022-10-03T22:05:16.067Z,101230.66
2022-10-03T22:07:43.690Z,101239.81
2022-10-03T22:10:25.052Z,101241.53
2022-10-03T22:13:15.313Z,101239.25
2022-10-03T22:15:50.074Z,101230.63
2022-10-03T22:18:19.461Z,101233.56
2022-10-03T22:20:50.584Z,101228.94
2022-10-03T22:23:33.241Z,101235.06
2022-10-03T22:26:06.603Z,101235.84
2022-10-03T22:28:36.878Z,101234.50
2022-10-03T22:31:22.965Z,101234.91
2022-10-03T22:33:56.379Z,101232.13
2022-10-03T22:36:23.984Z,101234.41
2022-10-03T22:38:52.204Z,101233.53
2022-10-03T22:41:22.679Z,101225.25
2022-10-03T22:43:50.292Z,101225.44
2022-10-03T22:46:22.061Z,101229.78
2022-10-03T22:48:51.494Z,101227.25
2022-10-03T22:51:20.113Z,101231.97
2022-10-03T22:53:51.897Z,101228.22
2022-10-03T22:56:31.224Z,101222.56
2022-10-03T22:59:00.656Z,101226.13
2022-10-03T23:01:28.302Z,101226.78
2022-10-03T23:03:55.821Z,101230.56
2022-10-03T23:06:32.330Z,101227.00
2022-10-03T23:08:59.437Z,101235.03
2022-10-03T23:11:31.042Z,101235.59
2022-10-03T23:14:03.496Z,101226.41
2022-10-03T23:16:30.600Z,101222.06
2022-10-03T23:19:06.857Z,101228.06
2022-10-03T23:21:34.553Z,101231.59
2022-10-03T23:24:13.115Z,101232.69
2022-10-03T23:26:59.239Z,101232.69
2022-10-03T23:29:26.386Z,101235.56
2022-10-03T23:31:59.827Z,101244.03
2022-10-03T23:34:32.870Z,101231.56
2022-10-03T23:37:14.885Z,101236.22
2022-10-03T23:39:42.048Z,101241.72
2022-10-03T23:42:12.294Z,101240.69
2022-10-03T23:44:49.931Z,101237.44
2022-10-03T23:47:19.023Z,101238.31
2022-10-03T23:49:47.390Z,101238.38
2022-10-03T23:52:19.266Z,101246.78
2022-10-03T23:54:48.133Z,101243.75
2022-10-03T23:57:16.779Z,101246.13
2022-10-03T23:59:44.344Z,101248.16
